Time;durP1;ratioP1;P1;durP2;ratioP2;P2;SDS_P1;SDS_P2;PMS_P1;PMS_P2;Temp;Humidity;BMP_temperature;BMP_pressure;BME280_temperature;BME280_humidity;BME280_pressure;Samples;Min_cycle;Max_cycle;Signal;HPM_P1;HPM_P2
2023/07/17 00:02:11;;;;;;;;;;;23.40;43.50;;;;;;6275743;22;20340;-77
2023/07/17 00:04:37;;;;;;;;;;;23.40;43.50;;;;;;6275727;22;19970;-78
2023/07/17 00:07:03;;;;;;;;;;;23.40;43.50;;;;;;6275742;22;19910;-79
2023/07/17 00:09:29;;;;;;;;;;;23.30;43.60;;;;;;6276198;22;19935;-79
2023/07/17 00:11:54;;;;;;;;;;;23.30;43.70;;;;;;6276626;22;19937;-79
2023/07/17 00:14:20;;;;;;;;;;;23.30;43.70;;;;;;6276280;22;20392;-78
2023/07/17 00:16:45;;;;;;;;;;;23.30;43.80;;;;;;6248951;22;19911;-77
2023/07/17 00:19:11;;;;;;;;;;;23.30;43.80;;;;;;6275960;22;20264;-79
2023/07/17 00:21:36;;;;;;;;;;;23.20;43.80;;;;;;6248469;22;20333;-78
2023/07/17 00:24:02;;;;;;;;;;;23.20;43.80;;;;;;6275504;22;19907;-78
2023/07/17 00:26:29;;;;;;;;;;;23.20;43.90;;;;;;6276368;22;19911;-78
2023/07/17 00:28:58;;;;;;;;;;;23.20;44.20;;;;;;6275929;22;19914;-77
2023/07/17 00:31:26;;;;;;;;;;;23.10;44.10;;;;;;6275978;22;20365;-78
2023/07/17 00:33:52;;;;;;;;;;;23.10;44.00;;;;;;6275880;22;19938;-77
2023/07/17 00:36:17;;;;;;;;;;;23.10;43.90;;;;;;6276231;22;19919;-78
2023/07/17 00:38:43;;;;;;;;;;;23.00;44.10;;;;;;6275731;22;20377;-78
2023/07/17 00:41:08;;;;;;;;;;;23.00;44.30;;;;;;6275527;22;19911;-78
2023/07/17 00:43:35;;;;;;;;;;;23.00;44.20;;;;;;6275635;22;19911;-78
2023/07/17 00:46:01;;;;;;;;;;;22.90;44.20;;;;;;6275882;22;19907;-77
2023/07/17 00:48:26;;;;;;;;;;;22.80;44.20;;;;;;6276073;22;20246;-80
2023/07/17 00:50:52;;;;;;;;;;;22.70;44.20;;;;;;6275757;22;19912;-78
2023/07/17 00:53:18;;;;;;;;;;;22.70;44.20;;;;;;6275235;22;19915;-78
2023/07/17 00:55:44;;;;;;;;;;;22.70;44.40;;;;;;6275342;22;20284;-78
2023/07/17 00:58:10;;;;;;;;;;;22.60;44.50;;;;;;6275407;22;19913;-78
2023/07/17 01:00:36;;;;;;;;;;;22.50;44.70;;;;;;6275578;22;19911;-77
2023/07/17 01:03:02;;;;;;;;;;;22.40;44.80;;;;;;6275023;22;19910;-77
2023/07/17 01:05:27;;;;;;;;;;;22.40;44.90;;;;;;6275605;22;19915;-77
2023/07/17 01:07:54;;;;;;;;;;;22.30;45.00;;;;;;6275186;22;19953;-76
2023/07/17 01:10:19;;;;;;;;;;;22.30;45.30;;;;;;6275402;22;20360;-77
2023/07/17 01:12:44;;;;;;;;;;;22.30;45.80;;;;;;6275117;22;19904;-77
2023/07/17 01:15:10;;;;;;;;;;;22.30;46.00;;;;;;6274990;22;19915;-77
2023/07/17 01:17:35;;;;;;;;;;;22.30;45.80;;;;;;6275264;22;19982;-77
2023/07/17 01:20:01;;;;;;;;;;;22.30;45.80;;;;;;6275334;22;20206;-78
2023/07/17 01:22:28;;;;;;;;;;;22.30;45.80;;;;;;6275141;22;20218;-78
2023/07/17 01:24:54;;;;;;;;;;;22.20;45.80;;;;;;6274750;22;19915;-77
2023/07/17 01:27:19;;;;;;;;;;;22.10;45.80;;;;;;6275087;22;19903;-77
2023/07/17 01:29:45;;;;;;;;;;;22.00;46.00;;;;;;6274987;22;19934;-77
2023/07/17 01:32:10;;;;;;;;;;;22.00;46.10;;;;;;6274920;22;19973;-78
2023/07/17 01:34:36;;;;;;;;;;;22.00;46.40;;;;;;6274970;22;19903;-77
2023/07/17 01:37:01;;;;;;;;;;;22.10;46.50;;;;;;6275164;22;19947;-77
2023/07/17 01:39:27;;;;;;;;;;;22.10;46.60;;;;;;6274959;22;19990;-78
2023/07/17 01:41:52;;;;;;;;;;;22.00;46.70;;;;;;6247989;22;19973;-77
2023/07/17 01:44:18;;;;;;;;;;;22.00;46.50;;;;;;6275104;22;19914;-77
2023/07/17 01:46:43;;;;;;;;;;;22.00;46.30;;;;;;6275240;22;19915;-77
2023/07/17 01:49:09;;;;;;;;;;;22.00;46.40;;;;;;6274554;22;19930;-76
2023/07/17 01:51:34;;;;;;;;;;;22.00;46.50;;;;;;6275587;22;19916;-77
2023/07/17 01:54:00;;;;;;;;;;;22.00;46.70;;;;;;6274853;22;19982;-77
2023/07/17 01:56:25;;;;;;;;;;;21.90;47.00;;;;;;6247582;22;19915;-77
2023/07/17 01:58:51;;;;;;;;;;;21.90;47.10;;;;;;6274833;22;19935;-76
2023/07/17 02:01:16;;;;;;;;;;;21.80;47.50;;;;;;6274843;22;19918;-76
2023/07/17 02:03:42;;;;;;;;;;;21.80;47.70;;;;;;6274835;22;19907;-76
2023/07/17 02:06:07;;;;;;;;;;;21.80;48.00;;;;;;6247335;22;19961;-76
2023/07/17 02:08:33;;;;;;;;;;;21.80;48.30;;;;;;6274861;22;19907;-76
2023/07/17 02:10:58;;;;;;;;;;;21.90;48.40;;;;;;6247304;22;20351;-76
2023/07/17 02:13:24;;;;;;;;;;;21.90;48.70;;;;;;6274741;22;19904;-76
2023/07/17 02:15:49;;;;;;;;;;;22.10;49.20;;;;;;6274918;22;19915;-76
2023/07/17 02:18:15;;;;;;;;;;;22.20;49.10;;;;;;6274877;22;19987;-77
2023/07/17 02:20:41;;;;;;;;;;;22.30;49.00;;;;;;6274980;22;20305;-78
2023/07/17 02:23:06;;;;;;;;;;;22.30;48.90;;;;;;6274321;22;19910;-75
2023/07/17 02:25:31;;;;;;;;;;;22.40;48.90;;;;;;6274920;22;19988;-77
2023/07/17 02:27:57;;;;;;;;;;;22.40;49.10;;;;;;6274796;22;19908;-70
2023/07/17 02:30:23;;;;;;;;;;;22.20;52.60;;;;;;6274925;22;19911;-68
2023/07/17 02:32:48;;;;;;;;;;;21.90;54.90;;;;;;6275332;22;19903;-68
2023/07/17 02:35:14;;;;;;;;;;;21.60;57.00;;;;;;6274985;22;19957;-67
2023/07/17 02:37:40;;;;;;;;;;;21.40;58.80;;;;;;6274683;22;19915;-68
2023/07/17 02:40:10;;;;;;;;;;;21.20;60.10;;;;;;6274670;22;19964;-68
2023/07/17 02:42:36;;;;;;;;;;;21.00;61.10;;;;;;6274761;22;19904;-68
2023/07/17 02:45:01;;;;;;;;;;;20.90;61.90;;;;;;6274797;22;19916;-68
2023/07/17 02:47:26;;;;;;;;;;;20.80;62.50;;;;;;6274632;22;19941;-68
2023/07/17 02:49:52;;;;;;;;;;;20.70;63.00;;;;;;6274610;22;19937;-68
2023/07/17 02:52:17;;;;;;;;;;;20.60;63.60;;;;;;6274832;22;19964;-68
2023/07/17 02:54:43;;;;;;;;;;;20.50;64.10;;;;;;6247462;22;19974;-68
2023/07/17 02:57:10;;;;;;;;;;;20.50;64.70;;;;;;6274473;22;19911;-68
2023/07/17 02:59:36;;;;;;;;;;;20.50;65.20;;;;;;6274584;22;20321;-69
2023/07/17 03:02:01;;;;;;;;;;;20.50;65.70;;;;;;6274651;22;19953;-69
2023/07/17 03:04:27;;;;;;;;;;;20.60;66.00;;;;;;6274392;22;19912;-69
2023/07/17 03:06:53;;;;;;;;;;;20.60;66.30;;;;;;6275483;22;19911;-69
2023/07/17 03:09:18;;;;;;;;;;;20.60;66.50;;;;;;6274414;22;19903;-70
2023/07/17 03:11:43;;;;;;;;;;;20.60;66.70;;;;;;6274987;22;19911;-71
2023/07/17 03:14:09;;;;;;;;;;;20.60;66.90;;;;;;6274465;22;19903;-71
2023/07/17 03:16:34;;;;;;;;;;;20.60;67.00;;;;;;6275860;22;19953;-70
2023/07/17 03:19:00;;;;;;;;;;;20.70;67.10;;;;;;6276481;22;19958;-70
2023/07/17 03:21:25;;;;;;;;;;;20.70;67.20;;;;;;6277079;22;19918;-71
2023/07/17 03:23:51;;;;;;;;;;;20.60;67.30;;;;;;6276133;22;19994;-71
2023/07/17 03:26:16;;;;;;;;;;;20.60;67.40;;;;;;6276697;22;19911;-71
2023/07/17 03:28:42;;;;;;;;;;;20.60;67.50;;;;;;6276445;22;19942;-71
2023/07/17 03:31:07;;;;;;;;;;;20.70;67.70;;;;;;6276639;22;19922;-70
2023/07/17 03:33:33;;;;;;;;;;;20.60;67.70;;;;;;6276607;22;19911;-69
2023/07/17 03:35:59;;;;;;;;;;;20.60;67.60;;;;;;6276871;22;19993;-68
2023/07/17 03:38:24;;;;;;;;;;;20.50;67.40;;;;;;6276351;22;19932;-69
2023/07/17 03:40:49;;;;;;;;;;;20.30;67.50;;;;;;6276508;22;19924;-70
2023/07/17 03:43:15;;;;;;;;;;;20.30;67.70;;;;;;6276079;22;19950;-70
2023/07/17 03:45:40;;;;;;;;;;;20.20;68.00;;;;;;6276441;22;19911;-70
2023/07/17 03:48:06;;;;;;;;;;;20.20;68.10;;;;;;6276051;22;19911;-70
2023/07/17 03:50:32;;;;;;;;;;;20.10;68.30;;;;;;6276913;22;19911;-70
2023/07/17 03:52:57;;;;;;;;;;;20.10;68.40;;;;;;6276169;22;19942;-70
2023/07/17 03:55:23;;;;;;;;;;;20.10;68.50;;;;;;6276165;22;19965;-70
2023/07/17 03:57:48;;;;;;;;;;;20.10;68.70;;;;;;6276391;22;19907;-71
2023/07/17 04:00:14;;;;;;;;;;;20.10;68.70;;;;;;6276168;22;20334;-71
2023/07/17 04:02:40;;;;;;;;;;;20.10;68.70;;;;;;6276297;22;19908;-70
2023/07/17 04:05:06;;;;;;;;;;;20.10;68.90;;;;;;6276369;22;19912;-70
2023/07/17 04:07:32;;;;;;;;;;;20.20;69.00;;;;;;6276962;22;19915;-70
2023/07/17 04:09:57;;;;;;;;;;;20.20;69.10;;;;;;6276064;22;19917;-71
2023/07/17 04:12:22;;;;;;;;;;;20.20;69.20;;;;;;6275940;22;19908;-71
2023/07/17 04:14:48;;;;;;;;;;;20.20;69.20;;;;;;6276105;22;19903;-71
2023/07/17 04:17:13;;;;;;;;;;;20.20;69.10;;;;;;6275925;22;20412;-71
2023/07/17 04:19:39;;;;;;;;;;;20.30;69.20;;;;;;6275997;22;19957;-71
2023/07/17 04:22:04;;;;;;;;;;;20.30;69.40;;;;;;6276295;22;19914;-71
2023/07/17 04:24:30;;;;;;;;;;;20.30;69.60;;;;;;6275660;22;19911;-71
2023/07/17 04:26:55;;;;;;;;;;;20.40;69.60;;;;;;6275711;22;20264;-71
2023/07/17 04:29:21;;;;;;;;;;;20.50;69.70;;;;;;6275446;22;19925;-71
2023/07/17 04:31:47;;;;;;;;;;;20.60;70.10;;;;;;6249045;22;20372;-71
2023/07/17 04:34:12;;;;;;;;;;;20.70;70.10;;;;;;6275894;22;19942;-71
2023/07/17 04:36:38;;;;;;;;;;;20.70;70.00;;;;;;6276433;22;20344;-71
2023/07/17 04:39:06;;;;;;;;;;;20.80;70.00;;;;;;6275746;22;20383;-71
2023/07/17 04:41:32;;;;;;;;;;;20.90;70.00;;;;;;6276104;22;19915;-71
2023/07/17 04:43:57;;;;;;;;;;;20.90;69.90;;;;;;6248567;22;19915;-71
2023/07/17 04:46:26;;;;;;;;;;;20.90;69.90;;;;;;6276059;22;19938;-71
2023/07/17 04:48:51;;;;;;;;;;;20.90;70.00;;;;;;6275638;22;20320;-71
2023/07/17 04:51:17;;;;;;;;;;;21.00;70.10;;;;;;6275988;22;20142;-71
2023/07/17 04:53:42;;;;;;;;;;;21.00;70.10;;;;;;6276163;22;19907;-71
2023/07/17 04:56:08;;;;;;;;;;;21.00;70.10;;;;;;6275456;22;19915;-71
2023/07/17 04:58:33;;;;;;;;;;;21.20;70.10;;;;;;6275547;22;19914;-71
2023/07/17 05:00:59;;;;;;;;;;;21.20;70.10;;;;;;6275894;22;19927;-72
2023/07/17 05:03:25;;;;;;;;;;;21.30;70.20;;;;;;6275682;22;20329;-72
2023/07/17 05:05:50;;;;;;;;;;;21.30;70.40;;;;;;6275820;22;19919;-72
2023/07/17 05:08:17;;;;;;;;;;;21.50;70.20;;;;;;6275519;22;19910;-73
2023/07/17 05:10:43;;;;;;;;;;;21.60;70.10;;;;;;6276182;22;19911;-73
2023/07/17 05:13:08;;;;;;;;;;;21.60;69.90;;;;;;6275398;22;19910;-73
2023/07/17 05:15:34;;;;;;;;;;;21.70;69.80;;;;;;6275738;22;20344;-72
2023/07/17 05:17:59;;;;;;;;;;;21.70;70.00;;;;;;6275398;22;19935;-72
2023/07/17 05:20:25;;;;;;;;;;;21.80;70.20;;;;;;6275744;22;20344;-73
2023/07/17 05:22:50;;;;;;;;;;;22.00;70.10;;;;;;6275352;22;19903;-73
2023/07/17 05:25:15;;;;;;;;;;;22.10;70.10;;;;;;6275580;22;20037;-72
2023/07/17 05:27:41;;;;;;;;;;;22.30;70.20;;;;;;6272784;22;19926;-72
2023/07/17 05:30:07;;;;;;;;;;;22.40;70.40;;;;;;6271883;22;19916;-72
2023/07/17 05:32:32;;;;;;;;;;;22.60;70.30;;;;;;6247054;22;20222;-72
2023/07/17 05:34:58;;;;;;;;;;;23.00;71.00;;;;;;6274532;22;20325;-73
2023/07/17 05:37:24;;;;;;;;;;;23.30;70.30;;;;;;6274225;22;19903;-73
2023/07/17 05:39:49;;;;;;;;;;;23.40;69.50;;;;;;6273776;22;20521;-73
2023/07/17 05:42:15;;;;;;;;;;;23.50;69.20;;;;;;6275080;22;20222;-73
2023/07/17 05:44:40;;;;;;;;;;;23.50;68.90;;;;;;6245515;22;19911;-74
2023/07/17 05:47:06;;;;;;;;;;;23.50;69.10;;;;;;6246543;22;19903;-73
2023/07/17 05:49:31;;;;;;;;;;;23.60;68.40;;;;;;6273723;22;19903;-73
2023/07/17 05:51:57;;;;;;;;;;;23.60;68.40;;;;;;6245545;22;19907;-73
2023/07/17 05:54:22;;;;;;;;;;;23.90;69.60;;;;;;6274584;22;20225;-73
2023/07/17 05:56:48;;;;;;;;;;;24.40;69.80;;;;;;6274436;22;19985;-73
2023/07/17 05:59:13;;;;;;;;;;;24.90;69.80;;;;;;6274668;22;19911;-73
2023/07/17 06:01:39;;;;;;;;;;;25.50;69.90;;;;;;6275217;22;19911;-73
2023/07/17 06:04:04;;;;;;;;;;;26.00;69.50;;;;;;6274688;22;19907;-73
2023/07/17 06:06:30;;;;;;;;;;;26.60;68.70;;;;;;6275144;22;20002;-73
2023/07/17 06:08:57;;;;;;;;;;;27.10;67.90;;;;;;6273332;22;19974;-73
2023/07/17 06:11:23;;;;;;;;;;;27.60;68.30;;;;;;6274115;22;19911;-72
2023/07/17 06:13:48;;;;;;;;;;;28.10;66.50;;;;;;6275030;22;20355;-72
2023/07/17 06:16:13;;;;;;;;;;;28.40;66.60;;;;;;6271796;22;19916;-73
2023/07/17 06:18:39;;;;;;;;;;;28.80;65.90;;;;;;6247404;22;19953;-73
2023/07/17 06:21:04;;;;;;;;;;;29.20;64.10;;;;;;6246839;22;19912;-72
2023/07/17 06:23:30;;;;;;;;;;;29.40;64.80;;;;;;6273965;22;19907;-72
2023/07/17 06:25:55;;;;;;;;;;;29.80;64.00;;;;;;6273921;22;19912;-73
2023/07/17 06:28:21;;;;;;;;;;;30.20;64.70;;;;;;6246668;22;20237;-73
2023/07/17 06:30:46;;;;;;;;;;;30.50;63.70;;;;;;6273254;22;19918;-73
2023/07/17 06:33:13;;;;;;;;;;;30.90;65.30;;;;;;6273021;22;19909;-72
2023/07/17 06:35:39;;;;;;;;;;;31.30;64.00;;;;;;6274794;22;19912;-73
2023/07/17 06:38:04;;;;;;;;;;;31.60;64.50;;;;;;6274419;22;19926;-73
2023/07/17 06:40:30;;;;;;;;;;;31.80;61.50;;;;;;6274579;22;20002;-74
2023/07/17 06:42:55;;;;;;;;;;;32.10;60.70;;;;;;6274695;22;20009;-73
2023/07/17 06:45:21;;;;;;;;;;;32.20;59.40;;;;;;6247409;22;19926;-73
2023/07/17 06:47:46;;;;;;;;;;;32.30;58.30;;;;;;6273788;22;19983;-73
2023/07/17 06:50:12;;;;;;;;;;;32.30;58.60;;;;;;6274110;22;19915;-73
2023/07/17 06:52:38;;;;;;;;;;;32.40;55.50;;;;;;6275813;22;19907;-73
2023/07/17 06:55:04;;;;;;;;;;;32.50;52.60;;;;;;6249310;22;19907;-73
2023/07/17 06:57:30;;;;;;;;;;;32.60;54.10;;;;;;6249015;22;20329;-73
2023/07/17 06:59:55;;;;;;;;;;;32.90;51.60;;;;;;6276233;22;20033;-73
2023/07/17 07:02:21;;;;;;;;;;;33.30;51.00;;;;;;6275906;22;19903;-73
2023/07/17 07:04:46;;;;;;;;;;;33.40;45.60;;;;;;6248611;22;20285;-73
2023/07/17 07:07:12;;;;;;;;;;;33.70;46.60;;;;;;6275390;22;19907;-74
2023/07/17 07:09:37;;;;;;;;;;;34.00;46.70;;;;;;6274836;22;19907;-74
2023/07/17 07:12:03;;;;;;;;;;;34.30;41.90;;;;;;6276130;22;19957;-75
2023/07/17 07:14:28;;;;;;;;;;;34.50;42.30;;;;;;6275686;22;20325;-75
2023/07/17 07:16:54;;;;;;;;;;;34.70;39.30;;;;;;6276621;22;19919;-75
2023/07/17 07:19:19;;;;;;;;;;;34.80;37.60;;;;;;6276939;22;19904;-75
2023/07/17 07:21:45;;;;;;;;;;;34.80;35.40;;;;;;6250991;22;19938;-75
2023/07/17 07:24:10;;;;;;;;;;;34.90;36.90;;;;;;6249748;22;20383;-75
2023/07/17 07:26:37;;;;;;;;;;;35.20;37.80;;;;;;6278110;22;19915;-75
2023/07/17 07:29:03;;;;;;;;;;;35.50;36.80;;;;;;6280515;22;19985;-75
2023/07/17 07:31:28;;;;;;;;;;;35.70;34.50;;;;;;6281470;22;19919;-76
2023/07/17 07:33:54;;;;;;;;;;;36.00;34.50;;;;;;6283945;22;19903;-75
2023/07/17 07:36:19;;;;;;;;;;;36.30;34.70;;;;;;6285461;22;19934;-75
2023/07/17 07:38:45;;;;;;;;;;;36.70;32.20;;;;;;6255979;22;19957;-75
2023/07/17 07:41:10;;;;;;;;;;;36.70;30.20;;;;;;6281201;22;19954;-75
2023/07/17 07:43:36;;;;;;;;;;;36.80;30.40;;;;;;6278111;22;19907;-76
2023/07/17 07:46:01;;;;;;;;;;;37.10;30.00;;;;;;6277146;22;19911;-75
2023/07/17 07:48:27;;;;;;;;;;;37.30;30.60;;;;;;6276763;22;19943;-76
2023/07/17 07:50:52;;;;;;;;;;;37.60;30.90;;;;;;6276742;22;20326;-76
2023/07/17 07:53:18;;;;;;;;;;;37.90;29.00;;;;;;6276235;22;19982;-77
2023/07/17 07:55:43;;;;;;;;;;;38.20;28.50;;;;;;6275375;22;19941;-77
2023/07/17 07:58:09;;;;;;;;;;;38.40;27.40;;;;;;6275023;22;19907;-76
2023/07/17 08:00:34;;;;;;;;;;;38.50;26.40;;;;;;6273955;22;19915;-77
2023/07/17 08:03:00;;;;;;;;;;;38.40;26.00;;;;;;6274756;22;19939;-77
2023/07/17 08:05:25;;;;;;;;;;;38.30;26.30;;;;;;6274981;22;19916;-77
2023/07/17 08:07:51;;;;;;;;;;;38.50;25.80;;;;;;6246498;22;19904;-76
2023/07/17 08:10:16;;;;;;;;;;;38.50;25.70;;;;;;6247213;22;19949;-77
2023/07/17 08:12:42;;;;;;;;;;;38.70;25.50;;;;;;6273619;22;19903;-76
2023/07/17 08:15:07;;;;;;;;;;;38.80;24.60;;;;;;6274717;22;19915;-77
2023/07/17 08:17:34;;;;;;;;;;;38.80;24.70;;;;;;6274303;22;20241;-77
2023/07/17 08:19:59;;;;;;;;;;;39.00;23.70;;;;;;6274052;22;19934;-77
2023/07/17 08:22:24;;;;;;;;;;;39.00;23.50;;;;;;6273627;22;19903;-77
2023/07/17 08:24:50;;;;;;;;;;;39.20;22.60;;;;;;6273513;22;19927;-77
2023/07/17 08:27:15;;;;;;;;;;;39.10;21.80;;;;;;6274233;22;19977;-76
2023/07/17 08:29:41;;;;;;;;;;;39.00;21.10;;;;;;6274445;22;19957;-77
2023/07/17 08:32:06;;;;;;;;;;;38.90;21.50;;;;;;6272795;22;20344;-77
2023/07/17 08:34:32;;;;;;;;;;;38.90;22.00;;;;;;6273646;22;20230;-77
2023/07/17 08:36:57;;;;;;;;;;;39.00;21.90;;;;;;6273782;22;20028;-77
2023/07/17 08:39:23;;;;;;;;;;;39.20;21.50;;;;;;6273373;22;19904;-77
2023/07/17 08:41:50;;;;;;;;;;;39.30;20.70;;;;;;6274571;22;19911;-77
2023/07/17 08:44:16;;;;;;;;;;;39.30;20.70;;;;;;6273780;22;19961;-77
2023/07/17 08:46:42;;;;;;;;;;;39.40;20.60;;;;;;6274130;22;20229;-77
2023/07/17 08:49:08;;;;;;;;;;;39.60;20.60;;;;;;6246117;22;19911;-76
2023/07/17 08:51:33;;;;;;;;;;;39.80;20.70;;;;;;6273529;22;20226;-77
2023/07/17 08:54:00;;;;;;;;;;;40.00;20.30;;;;;;6274080;22;19943;-77
2023/07/17 08:56:26;;;;;;;;;;;40.10;20.10;;;;;;6272792;22;19922;-77
2023/07/17 08:58:54;;;;;;;;;;;40.30;20.10;;;;;;6274714;22;19907;-77
2023/07/17 09:01:19;;;;;;;;;;;40.30;20.10;;;;;;6272778;22;19946;-77
2023/07/17 09:03:45;;;;;;;;;;;40.50;19.90;;;;;;6270756;22;19907;-77
2023/07/17 09:06:12;;;;;;;;;;;40.70;19.90;;;;;;6273993;22;19915;-77
2023/07/17 09:08:38;;;;;;;;;;;40.80;19.30;;;;;;6274655;22;20383;-77
2023/07/17 09:11:04;;;;;;;;;;;41.00;19.30;;;;;;6275588;22;19916;-77
2023/07/17 09:13:42;;;;;;;;;;;41.20;18.00;;;;;;6275222;22;19942;-77
2023/07/17 09:16:14;;;;;;;;;;;41.00;17.70;;;;;;6274621;22;19922;-77
2023/07/17 09:18:39;;;;;;;;;;;40.70;18.30;;;;;;6274747;22;20314;-77
2023/07/17 09:21:05;;;;;;;;;;;40.70;18.00;;;;;;6273973;22;19911;-76
2023/07/17 09:23:40;;;;;;;;;;;40.60;18.30;;;;;;6273133;22;19961;-77
2023/07/17 09:26:06;;;;;;;;;;;40.70;18.40;;;;;;6275243;22;20375;-77
2023/07/17 09:28:35;;;;;;;;;;;40.80;18.00;;;;;;6274668;22;19904;-77
2023/07/17 09:31:01;;;;;;;;;;;40.80;18.20;;;;;;6273927;22;19911;-77
2023/07/17 09:33:26;;;;;;;;;;;40.90;18.40;;;;;;6274619;22;19969;-76
2023/07/17 09:35:56;;;;;;;;;;;41.10;18.70;;;;;;6247091;22;19919;-77
2023/07/17 09:38:24;;;;;;;;;;;41.50;18.70;;;;;;6274892;22;19908;-78
2023/07/17 09:40:49;;;;;;;;;;;41.80;18.00;;;;;;6273231;22;19908;-76
2023/07/17 09:43:15;;;;;;;;;;;42.20;17.90;;;;;;6273434;22;19911;-77
2023/07/17 09:45:40;;;;;;;;;;;42.40;17.60;;;;;;6272282;22;19954;-74
2023/07/17 09:48:06;;;;;;;;;;;42.50;17.40;;;;;;6245924;22;19942;-77
2023/07/17 09:50:32;;;;;;;;;;;42.50;17.20;;;;;;6273557;22;19954;-77
2023/07/17 09:52:58;;;;;;;;;;;42.60;17.40;;;;;;6271948;22;20249;-77
2023/07/17 09:55:25;;;;;;;;;;;42.80;17.00;;;;;;6273337;22;20318;-76
2023/07/17 09:57:52;;;;;;;;;;;42.70;17.00;;;;;;6272543;22;20268;-77
2023/07/17 10:00:19;;;;;;;;;;;42.70;17.00;;;;;;6273118;22;19965;-78
2023/07/17 10:03:08;;;;;;;;;;;42.30;17.10;;;;;;6244985;22;19991;-76
2023/07/17 10:05:35;;;;;;;;;;;41.80;17.10;;;;;;6257776;22;19915;-78
2023/07/17 10:08:03;;;;;;;;;;;40.90;17.60;;;;;;6271072;22;20183;-78
2023/07/17 10:10:29;;;;;;;;;;;40.40;18.00;;;;;;6271856;22;19922;-77
2023/07/17 10:12:55;;;;;;;;;;;40.00;18.30;;;;;;6269148;22;19904;-78
2023/07/17 10:15:21;;;;;;;;;;;39.50;18.60;;;;;;6273176;22;19965;-78
2023/07/17 10:17:54;;;;;;;;;;;39.00;18.80;;;;;;6274272;22;20306;-77
2023/07/17 10:20:19;;;;;;;;;;;38.30;19.20;;;;;;6273817;22;19912;-78
2023/07/17 10:22:45;;;;;;;;;;;37.80;19.90;;;;;;6274066;22;19903;-78
2023/07/17 10:25:16;;;;;;;;;;;37.40;20.30;;;;;;6274293;22;19925;-78
2023/07/17 10:27:44;;;;;;;;;;;37.30;20.80;;;;;;6274254;22;19953;-77
2023/07/17 10:30:29;;;;;;;;;;;37.50;20.80;;;;;;6274143;22;20383;-77
2023/07/17 10:33:07;;;;;;;;;;;37.60;20.20;;;;;;6245063;22;20375;-78
2023/07/17 10:35:43;;;;;;;;;;;37.30;20.70;;;;;;6274573;22;20387;-76
2023/07/17 10:38:09;;;;;;;;;;;37.50;21.10;;;;;;6273517;22;19969;-78
2023/07/17 10:40:35;;;;;;;;;;;37.80;20.90;;;;;;6274633;22;19911;-77
2023/07/17 10:43:21;;;;;;;;;;;37.80;20.30;;;;;;6273040;22;19907;-75
2023/07/17 10:45:47;;;;;;;;;;;37.80;20.40;;;;;;6269437;22;20321;-76
2023/07/17 10:48:13;;;;;;;;;;;38.00;20.80;;;;;;6273210;22;20646;-75
2023/07/17 10:50:45;;;;;;;;;;;38.30;20.00;;;;;;6272227;22;19918;-77
2023/07/17 10:53:11;;;;;;;;;;;38.50;20.00;;;;;;6273680;22;19908;-76
2023/07/17 10:55:36;;;;;;;;;;;38.70;19.40;;;;;;6271125;22;19915;-76
2023/07/17 10:58:02;;;;;;;;;;;38.70;19.60;;;;;;6272470;22;19907;-76
2023/07/17 11:00:28;;;;;;;;;;;38.70;19.90;;;;;;6272517;22;19920;-76
2023/07/17 11:02:56;;;;;;;;;;;39.00;19.60;;;;;;6269551;22;20404;-76
2023/07/17 11:05:23;;;;;;;;;;;39.10;19.20;;;;;;6272222;22;19938;-76
2023/07/17 11:07:48;;;;;;;;;;;38.80;19.20;;;;;;6272688;22;20348;-78
2023/07/17 11:10:14;;;;;;;;;;;38.70;19.40;;;;;;6272198;22;19916;-76
2023/07/17 11:12:40;;;;;;;;;;;38.30;19.40;;;;;;6268864;22;20318;-76
2023/07/17 11:15:15;;;;;;;;;;;38.00;19.40;;;;;;6272942;22;19911;-76
2023/07/17 11:17:41;;;;;;;;;;;37.80;20.00;;;;;;6272179;22;20318;-77
2023/07/17 11:20:07;;;;;;;;;;;37.90;20.20;;;;;;6273189;22;19953;-77
2023/07/17 11:22:32;;;;;;;;;;;37.90;19.90;;;;;;6267893;22;20014;-77
2023/07/17 11:24:58;;;;;;;;;;;37.70;19.90;;;;;;6272192;22;19915;-77
2023/07/17 11:27:23;;;;;;;;;;;37.40;19.90;;;;;;6272278;22;20300;-77
2023/07/17 11:29:50;;;;;;;;;;;37.50;20.60;;;;;;6272631;22;19935;-77
2023/07/17 11:32:22;;;;;;;;;;;37.70;20.60;;;;;;6266409;22;19910;-76
2023/07/17 11:34:54;;;;;;;;;;;37.80;19.80;;;;;;6273575;22;19903;-77
2023/07/17 11:37:49;;;;;;;;;;;37.50;19.60;;;;;;6273647;22;19978;-77
2023/07/17 11:40:14;;;;;;;;;;;37.30;19.70;;;;;;6247393;22;19911;-77
2023/07/17 11:42:55;;;;;;;;;;;37.20;19.80;;;;;;6267676;22;20322;-76
2023/07/17 11:45:25;;;;;;;;;;;37.00;19.80;;;;;;6273778;22;19938;-76
2023/07/17 11:47:51;;;;;;;;;;;36.80;19.90;;;;;;6273874;22;19989;-78
2023/07/17 11:50:20;;;;;;;;;;;36.60;20.00;;;;;;6273461;22;19967;-76
2023/07/17 11:52:45;;;;;;;;;;;36.40;20.10;;;;;;6268921;22;19998;-77
2023/07/17 11:55:11;;;;;;;;;;;36.00;20.30;;;;;;6274493;22;20330;-76
2023/07/17 11:57:36;;;;;;;;;;;35.70;20.50;;;;;;6274538;22;19919;-75
2023/07/17 12:00:06;;;;;;;;;;;35.20;20.80;;;;;;6275500;22;20320;-75
2023/07/17 12:02:32;;;;;;;;;;;35.00;21.60;;;;;;6267971;22;19907;-76
2023/07/17 12:05:00;;;;;;;;;;;35.10;22.00;;;;;;6273256;22;19924;-76
2023/07/17 12:07:26;;;;;;;;;;;35.40;22.20;;;;;;6274415;22;20395;-76
2023/07/17 12:09:51;;;;;;;;;;;35.70;21.40;;;;;;6275733;22;19997;-76
2023/07/17 12:12:17;;;;;;;;;;;35.70;21.20;;;;;;6270776;22;20401;-76
2023/07/17 12:14:42;;;;;;;;;;;36.00;21.20;;;;;;6276215;22;19984;-76
2023/07/17 12:17:08;;;;;;;;;;;36.20;21.00;;;;;;6274969;22;19938;-76
2023/07/17 12:19:34;;;;;;;;;;;36.00;20.70;;;;;;6277394;22;19907;-74
2023/07/17 12:21:59;;;;;;;;;;;35.80;20.70;;;;;;6270013;22;19904;-77
2023/07/17 12:24:24;;;;;;;;;;;35.50;20.70;;;;;;6248074;22;19915;-76
2023/07/17 12:26:50;;;;;;;;;;;35.20;20.80;;;;;;6275677;22;19918;-76
2023/07/17 12:29:15;;;;;;;;;;;35.00;21.40;;;;;;6275578;22;19903;-74
2023/07/17 12:31:41;;;;;;;;;;;35.20;21.70;;;;;;6248868;22;20316;-78
2023/07/17 12:34:07;;;;;;;;;;;35.50;21.80;;;;;;6274978;22;19930;-78
2023/07/17 12:36:33;;;;;;;;;;;36.00;21.80;;;;;;6275966;22;20131;-76
2023/07/17 12:39:10;;;;;;;;;;;36.30;21.00;;;;;;6275312;22;19990;-75
2023/07/17 12:41:36;;;;;;;;;;;36.40;20.70;;;;;;6249258;22;19919;-76
2023/07/17 12:44:01;;;;;;;;;;;36.50;20.80;;;;;;6274686;22;19908;-76
2023/07/17 12:46:27;;;;;;;;;;;36.80;20.70;;;;;;6274766;22;19922;-76
2023/07/17 12:48:52;;;;;;;;;;;37.00;20.50;;;;;;6247497;22;19907;-76
2023/07/17 12:51:18;;;;;;;;;;;37.00;19.90;;;;;;6275890;22;20320;-73
2023/07/17 12:53:43;;;;;;;;;;;37.10;19.70;;;;;;6270926;22;19903;-76
2023/07/17 12:56:08;;;;;;;;;;;36.90;19.50;;;;;;6272762;22;19919;-77
2023/07/17 12:58:34;;;;;;;;;;;36.60;19.30;;;;;;6272898;22;19910;-76
2023/07/17 13:01:00;;;;;;;;;;;36.20;19.60;;;;;;6273900;22;19915;-76
2023/07/17 13:03:25;;;;;;;;;;;35.80;19.90;;;;;;6271453;22;19949;-76
2023/07/17 13:05:50;;;;;;;;;;;35.30;20.40;;;;;;6273455;22;20302;-76
2023/07/17 13:08:16;;;;;;;;;;;35.00;20.90;;;;;;6274519;22;20245;-76
2023/07/17 13:10:42;;;;;;;;;;;34.90;21.30;;;;;;6274092;22;19911;-75
2023/07/17 13:13:07;;;;;;;;;;;34.80;21.60;;;;;;6274466;22;19961;-76
2023/07/17 13:15:33;;;;;;;;;;;34.80;21.80;;;;;;6271482;22;19911;-76
2023/07/17 13:17:58;;;;;;;;;;;34.70;21.90;;;;;;6245538;22;20294;-76
2023/07/17 13:20:24;;;;;;;;;;;34.50;21.90;;;;;;6273833;22;20226;-76
2023/07/17 13:22:49;;;;;;;;;;;34.30;22.10;;;;;;6268926;22;19910;-75
2023/07/17 13:25:14;;;;;;;;;;;34.50;22.40;;;;;;6245856;22;20283;-76
2023/07/17 13:27:40;;;;;;;;;;;34.80;22.50;;;;;;6274210;22;19914;-75
2023/07/17 13:30:06;;;;;;;;;;;35.10;22.40;;;;;;6273596;22;19911;-75
2023/07/17 13:32:32;;;;;;;;;;;35.20;22.50;;;;;;6268346;22;19911;-75
2023/07/17 13:34:57;;;;;;;;;;;35.00;22.20;;;;;;6273656;22;19911;-75
2023/07/17 13:37:23;;;;;;;;;;;34.70;22.40;;;;;;6272849;22;19914;-75
2023/07/17 13:39:49;;;;;;;;;;;34.60;22.70;;;;;;6273220;22;20343;-76
2023/07/17 13:42:14;;;;;;;;;;;34.80;23.00;;;;;;6268627;22;19942;-74
2023/07/17 13:44:40;;;;;;;;;;;35.30;22.80;;;;;;6272692;22;19915;-74
2023/07/17 13:47:05;;;;;;;;;;;35.80;22.70;;;;;;6272988;22;19903;-75
2023/07/17 13:49:31;;;;;;;;;;;36.10;22.40;;;;;;6273012;22;19907;-74
2023/07/17 13:51:56;;;;;;;;;;;36.40;22.10;;;;;;6268316;22;19978;-75
2023/07/17 13:54:22;;;;;;;;;;;36.40;21.90;;;;;;6273604;22;19907;-75
2023/07/17 13:56:47;;;;;;;;;;;36.10;21.70;;;;;;6273165;22;20309;-76
2023/07/17 13:59:13;;;;;;;;;;;35.80;21.80;;;;;;6273788;22;20297;-77
2023/07/17 14:01:40;;;;;;;;;;;35.40;22.00;;;;;;6273712;22;21264;-77
2023/07/17 14:04:07;;;;;;;;;;;35.20;22.30;;;;;;6273632;22;19950;-78
2023/07/17 14:06:32;;;;;;;;;;;35.20;22.60;;;;;;6273892;22;19919;-77
2023/07/17 14:08:58;;;;;;;;;;;35.60;22.60;;;;;;6273475;22;19913;-75
2023/07/17 14:11:24;;;;;;;;;;;35.70;22.60;;;;;;6274575;22;19912;-76